Time;durP1;ratioP1;P1;durP2;ratioP2;P2;SDS_P1;SDS_P2;PMS_P1;PMS_P2;Temp;Humidity;BMP_temperature;BMP_pressure;BME280_temperature;BME280_humidity;BME280_pressure;Samples;Min_cycle;Max_cycle;Signal;HPM_P1;HPM_P2
2022/09/16 00:01:35;;;;;;;;;;;17.90;69.70;;;13.65;100.00;95102.03;5013658;28;19963;-48
2022/09/16 00:04:10;;;;;;;;;;;17.90;69.70;;;13.62;100.00;95108.78;5013455;28;19917;-47
2022/09/16 00:06:35;;;;;;;;;;;17.90;69.70;;;13.60;100.00;95100.25;4951330;28;19992;-46
2022/09/16 00:09:04;;;;;;;;;;;18.00;69.80;;;13.60;100.00;95097.59;4985115;28;20012;-50
2022/09/16 00:11:36;;;;;;;;;;;17.90;69.70;;;13.60;100.00;95110.97;4996814;28;19908;-51
2022/09/16 00:14:03;;;;;;;;;;;18.00;69.80;;;13.61;100.00;95109.09;5014279;28;19915;-48
2022/09/16 00:16:32;;;;;;;;;;;17.90;69.70;;;13.63;100.00;95110.38;4989110;28;20292;-47
2022/09/16 00:19:00;;;;;;;;;;;18.00;69.80;;;13.64;100.00;95111.97;5008294;28;19940;-49
2022/09/16 00:21:28;;;;;;;;;;;17.90;69.80;;;13.68;100.00;95122.06;4991345;28;20067;-49
2022/09/16 00:24:02;;;;;;;;;;;17.90;69.90;;;13.67;100.00;95115.16;5014249;28;19928;-47
2022/09/16 00:26:28;;;;;;;;;;;17.90;69.80;;;13.68;100.00;95130.09;4995948;28;19915;-51
2022/09/16 00:28:54;;;;;;;;;;;17.90;69.90;;;13.70;100.00;95127.94;4993325;28;19916;-46
2022/09/16 00:31:20;;;;;;;;;;;17.90;69.90;;;13.68;100.00;95125.53;5003414;28;19909;-47
2022/09/16 00:33:46;;;;;;;;;;;17.90;69.90;;;13.68;100.00;95122.06;5011041;28;19909;-46
2022/09/16 00:36:19;;;;;;;;;;;17.90;70.00;;;13.69;100.00;95119.09;5003131;28;19909;-48
2022/09/16 00:38:49;;;;;;;;;;;17.90;70.00;;;13.68;100.00;95124.75;4980235;28;19909;-50
2022/09/16 00:41:31;;;;;;;;;;;18.00;70.00;;;13.70;100.00;95127.94;5007385;28;19909;-47
2022/09/16 00:44:25;;;;;;;;;;;17.90;70.00;;;13.72;100.00;95134.56;4997970;28;20007;-47
2022/09/16 00:46:53;;;;;;;;;;;18.00;70.00;;;13.73;100.00;95138.06;4995749;28;19909;-47
2022/09/16 00:49:30;;;;;;;;;;;18.00;70.00;;;13.69;100.00;95134.34;4979962;28;19913;-47
2022/09/16 00:52:04;;;;;;;;;;;18.00;70.10;;;13.73;100.00;95130.03;4993837;28;19917;-47
2022/09/16 00:54:39;;;;;;;;;;;18.00;70.10;;;13.73;100.00;95122.78;4961112;28;20327;-47
2022/09/16 00:57:10;;;;;;;;;;;18.00;70.10;;;13.75;100.00;95122.47;4974215;28;19996;-49
2022/09/16 00:59:46;;;;;;;;;;;18.00;70.00;;;13.74;100.00;95116.34;5002927;28;19960;-46
2022/09/16 01:02:17;;;;;;;;;;;18.00;70.00;;;13.75;100.00;95115.22;4984187;28;20355;-47
2022/09/16 01:04:52;;;;;;;;;;;18.00;69.90;;;13.75;100.00;95115.22;4990985;28;19921;-47
2022/09/16 01:07:47;;;;;;;;;;;18.00;69.90;;;13.73;100.00;95114.75;4986226;28;20352;-48
2022/09/16 01:10:22;;;;;;;;;;;18.00;69.90;;;13.72;100.00;95123.06;5010122;28;19963;-51
2022/09/16 01:12:58;;;;;;;;;;;18.00;69.90;;;13.70;100.00;95115.34;4993005;28;19981;-48
2022/09/16 01:15:46;;;;;;;;;;;18.10;70.00;;;13.72;100.00;95123.84;4988015;28;19940;-50
2022/09/16 01:18:51;;;;;;;;;;;18.00;69.90;;;13.70;100.00;95122.59;4998203;28;20354;-48
2022/09/16 01:21:52;;;;;;;;;;;18.00;69.90;;;13.70;100.00;95111.88;4984060;28;19920;-49
2022/09/16 01:24:54;;;;;;;;;;;18.00;69.90;;;13.73;100.00;95122.78;4995848;28;20279;-52
2022/09/16 01:27:42;;;;;;;;;;;18.00;69.90;;;13.75;100.00;95117.13;4982514;28;19910;-47
2022/09/16 01:30:35;;;;;;;;;;;18.00;70.00;;;13.77;100.00;95120.31;4996717;28;19909;-51
2022/09/16 01:33:33;;;;;;;;;;;18.00;70.00;;;13.70;100.00;95112.66;5001175;28;19909;-47
2022/09/16 01:36:45;;;;;;;;;;;18.00;70.10;;;13.70;100.00;95120.69;5011726;28;19913;-47
2022/09/16 01:39:57;;;;;;;;;;;18.00;70.00;;;13.68;100.00;95114.84;4985416;28;19915;-47
2022/09/16 01:43:20;;;;;;;;;;;18.00;70.10;;;13.65;100.00;95105.50;5007097;28;19909;-49
2022/09/16 01:46:38;;;;;;;;;;;18.00;70.00;;;13.52;100.00;95095.59;4997690;28;20000;-47
2022/09/16 01:50:05;;;;;;;;;;;18.00;70.10;;;13.49;100.00;95101.53;4968894;28;19924;-49
2022/09/16 01:52:49;;;;;;;;;;;17.90;70.00;;;13.45;100.00;95097.84;4922926;29;19922;-47
2022/09/16 01:55:26;;;;;;;;;;;17.80;69.90;;;13.45;100.00;95097.06;4998827;28;19909;-47
2022/09/16 01:58:07;;;;;;;;;;;17.80;69.90;;;13.41;100.00;95107.53;4985145;28;19952;-46
2022/09/16 02:00:33;;;;;;;;;;;17.80;69.90;;;13.36;100.00;95102.28;4984928;28;19909;-47
2022/09/16 02:03:13;;;;;;;;;;;17.70;70.60;;;13.37;100.00;95101.97;4989652;28;19927;-49
2022/09/16 02:06:20;;;;;;;;;;;17.70;69.80;;;13.32;100.00;95103.97;4984478;28;19914;-45
2022/09/16 02:08:56;;;;;;;;;;;17.70;69.90;;;13.26;100.00;95107.81;4970871;28;19916;-50
2022/09/16 02:11:32;;;;;;;;;;;17.70;69.90;;;13.24;100.00;95104.59;4955612;28;19917;-51
2022/09/16 02:14:22;;;;;;;;;;;17.60;69.80;;;13.23;100.00;95106.47;4970249;28;20012;-51
2022/09/16 02:17:05;;;;;;;;;;;17.60;69.90;;;13.17;100.00;95108.44;4990187;28;19909;-47
2022/09/16 02:19:56;;;;;;;;;;;17.60;69.90;;;13.18;100.00;95107.34;4991446;28;19909;-46
2022/09/16 02:22:43;;;;;;;;;;;17.50;69.80;;;13.19;100.00;95108.13;4983524;28;19910;-47
2022/09/16 02:25:13;;;;;;;;;;;17.50;69.90;;;13.17;100.00;95102.31;4975102;28;19928;-48
2022/09/16 02:27:45;;;;;;;;;;;17.50;70.00;;;13.16;100.00;95100.69;4990348;28;19920;-48
2022/09/16 02:30:22;;;;;;;;;;;17.50;69.90;;;13.12;100.00;95092.47;4990280;28;19910;-51
2022/09/16 02:33:07;;;;;;;;;;;17.40;69.80;;;13.10;100.00;95107.19;4991123;28;19960;-48
2022/09/16 02:35:46;;;;;;;;;;;17.50;69.90;;;13.08;100.00;95096.81;4971401;28;19937;-50
2022/09/16 02:38:24;;;;;;;;;;;17.50;69.90;;;13.08;100.00;95088.00;4985702;28;19913;-47
2022/09/16 02:40:58;;;;;;;;;;;17.40;69.90;;;12.98;100.00;95090.84;4973646;28;20012;-48
2022/09/16 02:43:26;;;;;;;;;;;17.50;69.90;;;12.91;100.00;95088.50;4977741;28;19914;-46
2022/09/16 02:46:19;;;;;;;;;;;17.40;69.80;;;12.92;100.00;95085.56;4974045;28;19910;-47
2022/09/16 02:50:03;;;;;;;;;;;17.40;69.90;;;12.93;100.00;95079.13;4980332;28;20338;-47
2022/09/16 02:53:21;;;;;;;;;;;17.30;69.80;;;12.93;100.00;95081.81;4954591;28;20386;-50
2022/09/16 02:55:53;;;;;;;;;;;17.30;69.90;;;12.91;100.00;95077.81;4953167;28;19910;-51
2022/09/16 02:58:19;;;;;;;;;;;17.30;70.00;;;12.89;100.00;95075.47;4966204;28;19920;-47
2022/09/16 03:00:53;;;;;;;;;;;17.20;70.00;;;12.85;100.00;95066.44;4953761;28;19921;-48
2022/09/16 03:03:37;;;;;;;;;;;17.20;69.90;;;12.87;100.00;95068.81;4938640;28;19958;-47
2022/09/16 03:06:10;;;;;;;;;;;17.20;69.90;;;12.88;100.00;95070.38;4953435;28;20280;-48
2022/09/16 03:08:38;;;;;;;;;;;17.20;70.00;;;12.83;100.00;95063.25;4954016;28;20384;-47
2022/09/16 03:11:51;;;;;;;;;;;17.20;70.00;;;12.82;100.00;95060.88;4968664;28;19956;-49
2022/09/16 03:15:14;;;;;;;;;;;17.20;70.00;;;12.80;100.00;95052.34;4969582;28;20008;-49
2022/09/16 03:17:52;;;;;;;;;;;17.20;70.00;;;12.77;100.00;95053.72;4940217;28;19959;-52
2022/09/16 03:20:54;;;;;;;;;;;17.10;70.00;;;12.77;100.00;95044.91;4969791;28;19960;-49
2022/09/16 03:23:53;;;;;;;;;;;17.10;70.00;;;12.70;100.00;95046.06;4963117;28;20136;-45
2022/09/16 03:26:41;;;;;;;;;;;17.10;70.00;;;12.68;100.00;95037.56;4971901;28;19918;-46
2022/09/16 03:29:37;;;;;;;;;;;17.10;70.10;;;12.70;100.00;95030.03;4967463;28;19960;-50
2022/09/16 03:32:21;;;;;;;;;;;17.10;70.10;;;12.73;100.00;95034.03;4965172;28;19909;-50
2022/09/16 03:35:14;;;;;;;;;;;17.00;70.10;;;12.74;100.00;95027.59;4965033;28;28094;-48
2022/09/16 03:37:44;;;;;;;;;;;17.00;70.10;;;12.72;100.00;95024.41;4955046;28;19910;-51
2022/09/16 03:40:15;;;;;;;;;;;17.00;70.10;;;12.67;100.00;95033.28;4964084;28;19909;-50
2022/09/16 03:42:52;;;;;;;;;;;17.00;70.10;;;12.70;100.00;95023.91;4959698;28;19918;-47
2022/09/16 03:45:21;;;;;;;;;;;17.10;70.20;;;12.70;100.00;95018.56;4960703;28;19910;-48
2022/09/16 03:47:50;;;;;;;;;;;17.00;70.10;;;12.68;100.00;95015.38;4970448;28;20369;-47
2022/09/16 03:50:20;;;;;;;;;;;17.00;70.00;;;12.71;100.00;95014.81;4970522;28;20280;-51
2022/09/16 03:52:45;;;;;;;;;;;17.00;70.00;;;12.69;100.00;95020.44;4969291;28;19914;-47
2022/09/16 03:55:15;;;;;;;;;;;17.10;70.10;;;12.70;100.00;95022.03;4970027;28;20376;-47
2022/09/16 03:57:41;;;;;;;;;;;17.10;70.10;;;12.69;100.00;95020.44;4969311;28;19909;-48
2022/09/16 04:00:11;;;;;;;;;;;17.10;70.20;;;12.70;100.00;95018.56;4970380;28;19914;-49
2022/09/16 04:02:42;;;;;;;;;;;17.10;70.10;;;12.69;100.00;95015.09;4975859;28;20280;-50
2022/09/16 04:05:08;;;;;;;;;;;17.10;70.10;;;12.69;100.00;95012.44;4991191;28;19913;-47
2022/09/16 04:07:37;;;;;;;;;;;17.10;70.00;;;12.70;100.00;95011.34;4992967;28;19916;-50
2022/09/16 04:10:11;;;;;;;;;;;17.10;70.00;;;12.66;100.00;95004.19;4973642;28;19921;-46
2022/09/16 04:12:46;;;;;;;;;;;17.00;69.90;;;12.63;100.00;95012.78;4976555;28;19960;-47
2022/09/16 04:15:14;;;;;;;;;;;17.00;69.90;;;12.62;100.00;95001.31;4968140;28;19910;-48
2022/09/16 04:17:40;;;;;;;;;;;17.00;70.00;;;12.60;100.00;94992.81;4997028;28;20423;-46
2022/09/16 04:20:14;;;;;;;;;;;17.00;70.00;;;12.59;100.00;94999.22;5010176;28;19913;-47
2022/09/16 04:22:40;;;;;;;;;;;17.00;70.00;;;12.57;100.00;95001.41;5009244;28;19913;-48
2022/09/16 04:25:20;;;;;;;;;;;16.90;69.90;;;12.56;100.00;94988.31;5008746;28;19963;-50
2022/09/16 04:27:48;;;;;;;;;;;17.00;70.10;;;12.54;100.00;94991.28;4979341;28;19916;-48
2022/09/16 04:30:16;;;;;;;;;;;16.90;70.00;;;12.52;100.00;94988.09;5010459;28;20299;-50
2022/09/16 04:32:45;;;;;;;;;;;16.90;70.00;;;12.51;100.00;94989.22;5010129;28;20011;-50
2022/09/16 04:35:18;;;;;;;;;;;16.90;70.10;;;12.51;100.00;94991.88;4978955;28;19909;-49
2022/09/16 04:37:51;;;;;;;;;;;16.90;70.10;;;12.50;100.00;94998.28;5010818;28;20400;-50
2022/09/16 04:40:20;;;;;;;;;;;16.90;70.00;;;12.50;100.00;94990.28;5008421;28;20474;-50
2022/09/16 04:42:54;;;;;;;;;;;16.90;70.00;;;12.50;100.00;95000.94;4959843;28;19918;-51
2022/09/16 04:45:20;;;;;;;;;;;16.90;70.10;;;12.51;100.00;95002.56;5002479;28;19909;-51
2022/09/16 04:47:46;;;;;;;;;;;16.90;70.10;;;12.49;100.00;95007.38;4996286;28;19958;-49
2022/09/16 04:50:12;;;;;;;;;;;16.90;70.20;;;12.51;100.00;95005.22;4967032;28;20380;-47
2022/09/16 04:52:47;;;;;;;;;;;16.90;70.20;;;12.50;100.00;95004.44;4986216;28;19909;-49
2022/09/16 04:55:13;;;;;;;;;;;16.90;70.20;;;12.50;100.00;95003.63;4981217;28;20300;-49
2022/09/16 04:57:48;;;;;;;;;;;16.90;70.10;;;12.47;100.00;95001.53;5005804;28;19913;-46
2022/09/16 05:00:24;;;;;;;;;;;16.80;70.10;;;12.45;100.00;95001.06;4995202;28;19978;-46
2022/09/16 05:02:50;;;;;;;;;;;16.90;70.10;;;12.42;100.00;95012.31;5011712;28;19956;-48
2022/09/16 05:05:16;;;;;;;;;;;16.80;70.00;;;12.39;100.00;95011.00;4965162;28;19955;-48
2022/09/16 05:07:42;;;;;;;;;;;16.80;70.00;;;12.37;100.00;95007.03;5013392;28;20023;-46
2022/09/16 05:10:08;;;;;;;;;;;16.80;70.00;;;12.37;100.00;95009.69;5009974;28;20370;-50
2022/09/16 05:12:34;;;;;;;;;;;16.80;70.10;;;12.36;100.00;95010.78;5009558;28;19909;-51
2022/09/16 05:15:04;;;;;;;;;;;16.80;70.10;;;12.37;100.00;95010.50;5008614;28;20391;-50
2022/09/16 05:17:30;;;;;;;;;;;16.80;70.00;;;12.36;100.00;95010.78;4981489;28;19992;-49
2022/09/16 05:19:56;;;;;;;;;;;16.80;70.00;;;12.37;100.00;95015.84;4959667;28;19913;-51
2022/09/16 05:22:30;;;;;;;;;;;16.80;70.10;;;12.38;100.00;95017.44;4994484;28;19909;-53
2022/09/16 05:24:56;;;;;;;;;;;16.80;70.10;;;12.42;100.00;95009.63;4995602;28;19909;-48
2022/09/16 05:27:31;;;;;;;;;;;16.80;70.10;;;12.42;100.00;95009.63;5011730;28;19915;-47
2022/09/16 05:30:17;;;;;;;;;;;16.80;70.10;;;12.46;100.00;95018.66;4979165;28;19909;-46
2022/09/16 05:32:42;;;;;;;;;;;16.90;70.20;;;12.48;100.00;95008.47;4998509;28;20380;-51
2022/09/16 05:35:23;;;;;;;;;;;16.90;70.10;;;12.49;100.00;95007.38;5007407;28;19937;-47
2022/09/16 05:37:51;;;;;;;;;;;16.90;70.10;;;12.53;100.00;95013.72;4975943;28;19925;-48
2022/09/16 05:40:19;;;;;;;;;;;17.00;70.20;;;12.55;100.00;95011.56;4980091;28;19913;-48
2022/09/16 05:42:52;;;;;;;;;;;17.10;70.20;;;12.58;100.00;95015.53;4992013;28;20390;-46
2022/09/16 05:45:18;;;;;;;;;;;17.10;70.10;;;12.63;100.00;95012.78;4985003;28;19944;-48
2022/09/16 05:48:01;;;;;;;;;;;17.20;70.20;;;12.67;100.00;95011.91;5012380;28;19998;-53
2022/09/16 05:50:27;;;;;;;;;;;17.30;70.10;;;12.73;100.00;95010.75;5013001;28;19913;-47
2022/09/16 05:52:56;;;;;;;;;;;17.30;70.00;;;12.79;100.00;95011.47;4994172;28;19916;-52
2022/09/16 05:55:21;;;;;;;;;;;17.40;70.00;;;12.87;100.00;95008.13;4995172;28;19909;-49
2022/09/16 05:57:50;;;;;;;;;;;17.50;70.00;;;12.98;100.00;95024.81;5009704;28;19916;-49
2022/09/16 06:00:19;;;;;;;;;;;17.60;69.90;;;13.05;100.00;95025.22;4990727;28;20324;-46
2022/09/16 06:02:46;;;;;;;;;;;17.80;69.80;;;13.12;100.00;95025.63;4992702;28;19921;-49
2022/09/16 06:05:18;;;;;;;;;;;17.90;69.90;;;13.16;100.00;95023.97;5008261;28;20330;-49
2022/09/16 06:07:46;;;;;;;;;;;18.00;69.70;;;13.26;100.00;95027.56;5010839;28;19909;-47
2022/09/16 06:10:12;;;;;;;;;;;18.00;69.70;;;13.34;100.00;95025.00;4987669;28;20359;-50
2022/09/16 06:12:41;;;;;;;;;;;18.10;69.60;;;13.42;100.00;95027.00;5012193;28;20012;-50
2022/09/16 06:15:09;;;;;;;;;;;18.20;69.60;;;13.49;100.00;95028.50;4994749;28;20460;-49
2022/09/16 06:17:40;;;;;;;;;;;18.20;69.50;;;13.51;100.00;95020.97;5002796;28;19952;-48
2022/09/16 06:20:12;;;;;;;;;;;18.30;69.50;;;13.48;100.00;95022.34;4975071;28;19913;-51
2022/09/16 06:22:39;;;;;;;;;;;18.40;69.50;;;13.51;100.00;95032.47;5002757;28;19909;-48
2022/09/16 06:25:14;;;;;;;;;;;18.40;69.40;;;13.55;100.00;95028.09;4993514;28;19978;-49
2022/09/16 06:27:45;;;;;;;;;;;18.40;69.30;;;13.61;100.00;95020.78;5010432;28;19909;-49
2022/09/16 06:30:11;;;;;;;;;;;18.40;69.20;;;13.63;100.00;95027.41;5011859;28;20358;-47
2022/09/16 06:32:37;;;;;;;;;;;18.50;69.10;;;13.67;100.00;95029.50;5000071;28;19956;-54
2022/09/16 06:35:03;;;;;;;;;;;18.60;69.10;;;13.73;100.00;95029.09;4966925;28;20063;-48
2022/09/16 06:37:29;;;;;;;;;;;18.60;69.00;;;13.75;100.00;95036.81;4998947;28;19910;-49
2022/09/16 06:39:55;;;;;;;;;;;18.60;68.90;;;13.75;100.00;95029.59;4981866;28;19910;-46
2022/09/16 06:42:20;;;;;;;;;;;18.70;68.80;;;13.78;100.00;95036.22;4996105;28;19932;-46
2022/09/16 06:44:46;;;;;;;;;;;18.70;69.50;;;13.83;100.00;95034.25;4997504;28;20051;-48
2022/09/16 06:47:34;;;;;;;;;;;18.80;68.80;;;13.86;100.00;95041.69;5003890;28;20295;-47
2022/09/16 06:50:06;;;;;;;;;;;18.80;68.60;;;13.93;100.00;95038.59;4991737;28;19913;-47
2022/09/16 06:52:37;;;;;;;;;;;18.90;68.60;;;13.97;99.89;95038.78;4966466;28;19910;-46
2022/09/16 06:55:04;;;;;;;;;;;18.90;68.50;;;14.04;99.88;95044.53;5011852;28;19909;-48
2022/09/16 06:57:48;;;;;;;;;;;19.00;68.50;;;14.07;99.56;95041.25;4992191;28;19909;-47
2022/09/16 07:00:16;;;;;;;;;;;19.10;68.50;;;14.14;99.65;95035.53;5011158;28;20356;-48
2022/09/16 07:02:46;;;;;;;;;;;19.10;68.40;;;14.24;99.39;95043.34;5010994;28;20350;-48
2022/09/16 07:05:15;;;;;;;;;;;19.20;68.40;;;14.32;98.36;95045.28;4993475;28;20354;-54
2022/09/16 07:07:52;;;;;;;;;;;19.30;69.10;;;14.40;98.61;95039.22;4992847;28;19909;-52
2022/09/16 07:10:22;;;;;;;;;;;19.40;68.30;;;14.46;96.88;95038.03;4999297;28;20038;-50
2022/09/16 07:12:48;;;;;;;;;;;19.40;68.30;;;14.54;96.36;95048.06;4992752;28;19913;-48
2022/09/16 07:15:14;;;;;;;;;;;19.50;68.20;;;14.62;95.55;95041.19;4995518;28;19916;-50
2022/09/16 07:17:42;;;;;;;;;;;19.60;68.10;;;14.74;95.58;95041.44;4999026;28;20002;-50
2022/09/16 07:20:08;;;;;;;;;;;19.70;68.00;;;14.81;95.19;95044.50;4974574;28;19996;-49
2022/09/16 07:22:37;;;;;;;;;;;19.80;68.00;;;14.93;95.21;95043.94;4978495;28;19909;-49
2022/09/16 07:25:04;;;;;;;;;;;19.90;67.90;;;15.02;94.43;95049.38;5002716;28;20313;-49
2022/09/16 07:27:30;;;;;;;;;;;20.00;67.80;;;15.05;93.44;95046.09;4964687;28;20427;-49
2022/09/16 07:29:55;;;;;;;;;;;20.10;67.70;;;15.18;93.81;95052.47;4962761;28;20015;-49
2022/09/16 07:32:21;;;;;;;;;;;20.20;67.50;;;15.21;92.86;95062.59;4998334;28;19917;-47
2022/09/16 07:34:47;;;;;;;;;;;20.40;67.30;;;15.31;93.51;95058.88;4957746;28;19916;-49
2022/09/16 07:37:13;;;;;;;;;;;20.50;67.10;;;15.41;93.21;95067.44;4965748;28;19913;-48
2022/09/16 07:39:39;;;;;;;;;;;20.60;66.90;;;15.43;92.12;95059.09;4981488;28;20996;-49
2022/09/16 07:42:06;;;;;;;;;;;20.80;66.90;;;15.40;90.29;95060.50;5004752;28;19955;-47
2022/09/16 07:44:38;;;;;;;;;;;20.80;66.50;;;15.45;89.46;95064.97;4974369;28;19913;-47
2022/09/16 07:47:03;;;;;;;;;;;20.90;66.30;;;15.54;88.14;95065.78;5002980;28;19955;-48
2022/09/16 07:49:29;;;;;;;;;;;21.00;66.20;;;15.49;87.82;95068.59;5001080;28;19951;-49
2022/09/16 07:51:55;;;;;;;;;;;21.00;65.90;;;15.62;87.59;95072.31;5000616;28;20268;-50
2022/09/16 07:54:26;;;;;;;;;;;21.10;65.70;;;15.71;86.59;95073.16;4972591;28;19935;-50
2022/09/16 07:56:52;;;;;;;;;;;21.20;65.60;;;15.75;85.78;95079.50;4990273;28;19947;-52
2022/09/16 07:59:19;;;;;;;;;;;21.30;66.10;;;16.00;85.33;95071.84;4989206;28;19945;-47
2022/09/16 08:01:53;;;;;;;;;;;21.50;65.10;;;16.18;82.95;95068.91;4997187;28;19960;-51
2022/09/16 08:04:19;;;;;;;;;;;21.70;64.90;;;16.37;83.38;95078.59;4995619;28;19929;-53
2022/09/16 08:06:45;;;;;;;;;;;22.00;64.60;;;16.46;81.15;95075.94;4999170;28;19975;-52
2022/09/16 08:09:11;;;;;;;;;;;22.30;64.90;;;16.68;79.76;95072.31;5004776;28;19920;-50
2022/09/16 08:11:39;;;;;;;;;;;22.50;63.60;;;16.96;77.92;95072.84;4988621;28;19913;-51
2022/09/16 08:14:05;;;;;;;;;;;22.80;63.40;;;16.96;75.49;95075.53;4975724;28;19916;-53
2022/09/16 08:16:31;;;;;;;;;;;23.00;62.90;;;17.16;78.47;95064.09;4997336;28;19909;-48
2022/09/16 08:18:58;;;;;;;;;;;23.20;62.40;;;17.36;75.80;95070.75;4990338;28;19909;-51
2022/09/16 08:21:27;;;;;;;;;;;23.30;62.10;;;17.41;75.05;95075.16;4993864;28;20265;-48
2022/09/16 08:23:57;;;;;;;;;;;23.60;61.60;;;17.48;77.31;95073.53;4995006;28;20319;-51
2022/09/16 08:26:24;;;;;;;;;;;23.70;61.20;;;17.74;74.76;95070.81;4980240;28;19954;-50
2022/09/16 08:28:50;;;;;;;;;;;23.80;61.00;;;17.67;73.86;95070.47;4995255;28;20276;-48
2022/09/16 08:31:18;;;;;;;;;;;23.90;60.50;;;17.95;74.11;95078.97;4980334;28;19963;-49
2022/09/16 08:33:44;;;;;;;;;;;24.10;60.20;;;18.18;70.11;95066.03;4994710;28;19963;-48
2022/09/16 08:36:18;;;;;;;;;;;24.30;59.90;;;18.08;70.26;95073.69;4987439;28;19916;-51
2022/09/16 08:38:52;;;;;;;;;;;24.50;59.20;;;18.08;70.93;95058.31;4984116;28;19908;-49
2022/09/16 08:42:08;;;;;;;;;;;24.60;58.80;;;18.64;69.93;95066.25;4982477;28;19996;-51
2022/09/16 08:44:59;;;;;;;;;;;25.00;58.60;;;19.24;64.80;95069.59;4996181;28;19913;-55
2022/09/16 08:47:49;;;;;;;;;;;25.70;58.30;;;19.77;66.91;95073.38;5000556;28;19971;-53
2022/09/16 08:50:48;;;;;;;;;;;26.20;57.80;;;19.52;65.81;95073.28;5003488;28;20362;-52
2022/09/16 08:53:30;;;;;;;;;;;26.40;57.00;;;19.93;64.17;95071.63;4997441;28;20159;-53
2022/09/16 08:56:01;;;;;;;;;;;26.80;56.40;;;20.03;62.69;95071.19;5013280;28;19908;-51
2022/09/16 08:58:42;;;;;;;;;;;27.20;55.90;;;20.26;63.51;95070.72;4995532;28;19909;-54
2022/09/16 09:01:30;;;;;;;;;;;27.40;55.60;;;20.49;61.97;95069.13;5012408;28;19998;-53
2022/09/16 09:03:57;;;;;;;;;;;27.90;55.10;;;20.94;60.67;95062.75;4994797;28;20373;-53
2022/09/16 09:06:53;;;;;;;;;;;28.20;54.70;;;20.63;61.75;95062.63;4995769;28;20004;-55
2022/09/16 09:09:53;;;;;;;;;;;28.50;53.40;;;20.95;59.59;95063.53;4995458;28;19913;-49
2022/09/16 09:12:44;;;;;;;;;;;28.80;53.00;;;21.63;57.03;95060.81;4993908;28;19910;-54
2022/09/16 09:15:37;;;;;;;;;;;29.40;52.60;;;21.36;56.67;95056.19;4996520;28;19920;-55
2022/09/16 09:18:21;;;;;;;;;;;30.00;51.00;;;21.76;55.57;95058.81;5005583;28;19982;-51
2022/09/16 09:21:08;;;;;;;;;;;30.30;50.20;;;22.03;56.86;95059.06;5006290;28;20447;-53
2022/09/16 09:23:56;;;;;;;;;;;30.80;49.60;;;22.17;55.80;95051.31;4995398;28;19913;-53
2022/09/16 09:26:45;;;;;;;;;;;31.00;49.30;;;22.49;54.68;95040.41;4993145;28;19945;-53
2022/09/16 09:29:47;;;;;;;;;;;31.10;49.40;;;22.44;55.53;95036.06;4990493;28;19916;-52
2022/09/16 09:32:18;;;;;;;;;;;30.70;49.40;;;21.98;54.45;95051.22;5011936;28;19921;-53
2022/09/16 09:35:17;;;;;;;;;;;30.10;49.70;;;21.76;54.35;95042.53;5010230;28;20390;-53
2022/09/16 09:38:31;;;;;;;;;;;29.50;50.00;;;21.23;56.74;95050.03;4995023;28;19936;-52
2022/09/16 09:41:14;;;;;;;;;;;28.70;50.20;;;20.48;58.87;95045.91;5012033;28;20013;-53
2022/09/16 09:43:57;;;;;;;;;;;28.00;50.10;;;20.19;61.40;95038.84;4995977;28;19917;-52
2022/09/16 09:46:30;;;;;;;;;;;27.50;50.50;;;19.65;62.35;95047.16;5009239;28;20032;-50
2022/09/16 09:49:15;;;;;;;;;;;27.00;50.60;;;19.07;63.24;95038.94;4976954;28;19944;-55
2022/09/16 09:52:29;;;;;;;;;;;26.50;50.80;;;18.84;64.14;95040.44;4977795;28;19919;-53
2022/09/16 09:55:30;;;;;;;;;;;25.90;51.00;;;18.41;65.39;95042.28;5011563;28;20364;-52
2022/09/16 09:58:53;;;;;;;;;;;25.30;51.50;;;18.15;68.79;95034.34;4994367;28;19912;-51
2022/09/16 10:01:20;;;;;;;;;;;24.80;51.90;;;18.04;71.38;95035.81;5012299;28;19916;-51
2022/09/16 10:03:49;;;;;;;;;;;24.20;52.50;;;17.68;73.11;95045.16;5011567;28;19964;-53
2022/09/16 10:06:47;;;;;;;;;;;23.70;52.90;;;17.45;75.32;95041.88;4994933;28;20018;-51
2022/09/16 10:09:16;;;;;;;;;;;23.20;53.30;;;17.24;74.85;95049.06;5012935;28;20298;-49
2022/09/16 10:11:54;;;;;;;;;;;22.80;53.90;;;16.85;75.93;95048.94;4994597;28;19955;-50
2022/09/16 10:14:33;;;;;;;;;;;22.40;54.30;;;16.62;76.37;95056.34;4994717;28;20447;-51
2022/09/16 10:17:15;;;;;;;;;;;22.00;54.70;;;16.30;78.01;95052.19;4993025;28;20395;-48
2022/09/16 10:20:19;;;;;;;;;;;21.70;55.00;;;16.15;79.14;95049.94;4994909;28;19952;-49
2022/09/16 10:23:08;;;;;;;;;;;21.50;55.30;;;16.06;79.69;95055.28;4974176;28;19914;-49
2022/09/16 10:25:34;;;;;;;;;;;21.30;55.60;;;15.99;80.93;95056.84;5009481;28;19996;-49
2022/09/16 10:28:04;;;;;;;;;;;21.10;55.80;;;15.95;80.03;95040.53;4966821;28;19909;-51
2022/09/16 10:30:54;;;;;;;;;;;21.10;56.10;;;15.78;81.14;95043.19;4988269;28;20004;-49
2022/09/16 10:33:40;;;;;;;;;;;20.90;56.30;;;15.74;81.32;95053.75;4960351;28;19916;-50
2022/09/16 10:36:16;;;;;;;;;;;20.80;56.50;;;15.68;80.79;95052.31;4992194;28;19952;-47
2022/09/16 10:38:54;;;;;;;;;;;20.70;56.80;;;15.63;81.60;95057.78;4976295;28;19914;-47
2022/09/16 10:41:33;;;;;;;;;;;20.60;57.00;;;15.70;82.96;95060.84;4960666;28;19937;-50
2022/09/16 10:44:06;;;;;;;;;;;20.50;57.10;;;15.71;82.84;95065.13;4994607;28;20023;-49
2022/09/16 10:46:33;;;;;;;;;;;20.50;57.30;;;15.79;84.50;95068.91;4993329;28;19915;-47
2022/09/16 10:49:11;;;;;;;;;;;20.50;57.40;;;15.71;83.07;95063.22;4994421;28;20011;-47
2022/09/16 10:51:36;;;;;;;;;;;20.50;57.60;;;15.68;83.71;95068.41;4993409;28;20640;-47
2022/09/16 10:54:05;;;;;;;;;;;20.50;57.60;;;15.45;82.49;95060.38;4994262;28;19915;-47
2022/09/16 10:56:52;;;;;;;;;;;20.50;57.60;;;15.34;83.94;95058.25;4977599;28;19920;-47
2022/09/16 10:59:19;;;;;;;;;;;20.60;57.60;;;15.43;85.31;95062.56;4985962;28;19919;-49
2022/09/16 11:02:43;;;;;;;;;;;20.60;57.50;;;15.43;83.12;95062.56;4994306;28;20401;-48
2022/09/16 11:05:37;;;;;;;;;;;20.70;57.60;;;15.55;84.53;95062.00;4947734;28;19944;-49
2022/09/16 11:08:54;;;;;;;;;;;20.70;57.60;;;15.53;83.94;95066.09;4992767;28;20008;-46
2022/09/16 11:11:46;;;;;;;;;;;20.80;57.60;;;15.63;84.36;95068.50;4992504;28;20003;-49
2022/09/16 11:15:08;;;;;;;;;;;20.90;57.60;;;15.86;84.97;95066.59;4994505;28;19909;-54
2022/09/16 11:18:18;;;;;;;;;;;21.10;57.60;;;15.87;81.97;95066.28;5005727;28;20276;-50
2022/09/16 11:21:23;;;;;;;;;;;21.30;57.70;;;15.92;82.70;95062.69;5004764;28;19954;-49
2022/09/16 11:24:25;;;;;;;;;;;21.40;57.60;;;15.99;81.13;95067.59;5005454;28;19914;-47
2022/09/16 11:27:14;;;;;;;;;;;21.50;57.50;;;15.92;79.97;95062.69;4929760;29;19918;-47
2022/09/16 11:29:58;;;;;;;;;;;21.60;57.40;;;16.00;79.54;95071.84;4960295;28;19917;-46
2022/09/16 11:32:47;;;;;;;;;;;21.70;57.20;;;16.19;79.72;95070.50;4995863;28;20336;-50
2022/09/16 11:35:38;;;;;;;;;;;21.80;57.10;;;16.33;78.05;95064.22;5002698;28;20447;-50
2022/09/16 11:38:38;;;;;;;;;;;22.10;57.00;;;16.48;76.87;95068.34;4973662;28;19910;-50
2022/09/16 11:41:39;;;;;;;;;;;22.20;56.70;;;16.51;75.92;95055.06;4993083;28;19916;-48
2022/09/16 11:44:46;;;;;;;;;;;22.30;56.60;;;16.71;74.87;95053.66;5007012;28;19948;-50
2022/09/16 11:47:25;;;;;;;;;;;22.30;56.70;;;16.51;74.63;95048.88;4998535;28;19959;-50
2022/09/16 11:50:43;;;;;;;;;;;22.10;56.80;;;16.32;73.07;95062.63;5000552;28;19924;-48
2022/09/16 11:53:52;;;;;;;;;;;22.00;56.80;;;16.11;72.07;95057.84;4967513;28;19914;-51
2022/09/16 11:56:33;;;;;;;;;;;21.80;56.60;;;16.18;71.46;95062.75;5001861;28;19963;-48
2022/09/16 11:59:40;;;;;;;;;;;21.60;56.50;;;16.18;72.31;95052.00;5008145;28;20415;-48
2022/09/16 12:02:24;;;;;;;;;;;21.40;56.60;;;16.24;71.03;95050.75;4999725;28;19916;-49
2022/09/16 12:05:18;;;;;;;;;;;21.30;56.70;;;16.18;71.27;95050.09;4986258;28;19997;-51